Aviation Digital Data Service (ADDS)

Output produced by METARs form (0400 UTC 23 September 2017)
found at http://www.aviationweather.gov/adds/metars/
 
ESTA 230350Z AUTO 00000KT 1700 OVC008/// 13/12 Q1022